sensor_id;sensor_type;location;lat;lon;timestamp;temperature;humidity
78541;SHT31;67835;51.968;5.646;2023-04-03T00:01:58;7.0;53.2
78541;SHT31;67835;51.968;5.646;2023-04-03T00:04:28;6.9;53.4
78541;SHT31;67835;51.968;5.646;2023-04-03T00:06:58;6.9;53.3
78541;SHT31;67835;51.968;5.646;2023-04-03T00:09:28;6.9;53.4
78541;SHT31;67835;51.968;5.646;2023-04-03T00:11:58;6.9;53.4
78541;SHT31;67835;51.968;5.646;2023-04-03T00:14:27;6.8;53.4
78541;SHT31;67835;51.968;5.646;2023-04-03T00:16:57;6.8;53.5
78541;SHT31;67835;51.968;5.646;2023-04-03T00:19:26;6.8;53.4
78541;SHT31;67835;51.968;5.646;2023-04-03T00:21:59;6.8;53.5
78541;SHT31;67835;51.968;5.646;2023-04-03T00:24:28;6.7;53.6
78541;SHT31;67835;51.968;5.646;2023-04-03T00:26:58;6.7;53.6
78541;SHT31;67835;51.968;5.646;2023-04-03T00:29:27;6.7;53.7
78541;SHT31;67835;51.968;5.646;2023-04-03T00:31:56;6.7;53.8
78541;SHT31;67835;51.968;5.646;2023-04-03T00:34:26;6.6;53.7
78541;SHT31;67835;51.968;5.646;2023-04-03T00:36:55;6.6;53.9
78541;SHT31;67835;51.968;5.646;2023-04-03T00:39:27;6.6;53.9
78541;SHT31;67835;51.968;5.646;2023-04-03T00:41:56;6.6;53.9
78541;SHT31;67835;51.968;5.646;2023-04-03T00:45:25;6.5;54.1
78541;SHT31;67835;51.968;5.646;2023-04-03T00:47:56;6.5;54.1
78541;SHT31;67835;51.968;5.646;2023-04-03T00:50:29;6.5;54.2
78541;SHT31;67835;51.968;5.646;2023-04-03T00:53:00;6.5;54.0
78541;SHT31;67835;51.968;5.646;2023-04-03T00:55:31;6.5;54.1
78541;SHT31;67835;51.968;5.646;2023-04-03T00:58:03;6.5;54.1
78541;SHT31;67835;51.968;5.646;2023-04-03T01:00:37;6.5;54.0
78541;SHT31;67835;51.968;5.646;2023-04-03T01:03:08;6.5;54.2
78541;SHT31;67835;51.968;5.646;2023-04-03T01:05:38;6.5;54.3
78541;SHT31;67835;51.968;5.646;2023-04-03T01:08:09;6.4;54.3
78541;SHT31;67835;51.968;5.646;2023-04-03T01:10:38;6.4;54.4
78541;SHT31;67835;51.968;5.646;2023-04-03T01:13:22;6.4;54.4
78541;SHT31;67835;51.968;5.646;2023-04-03T01:15:53;6.4;54.6
78541;SHT31;67835;51.968;5.646;2023-04-03T01:18:25;6.4;54.8
78541;SHT31;67835;51.968;5.646;2023-04-03T01:22:27;6.3;54.9
78541;SHT31;67835;51.968;5.646;2023-04-03T01:25:01;6.3;54.8
78541;SHT31;67835;51.968;5.646;2023-04-03T01:27:31;6.3;55.2
78541;SHT31;67835;51.968;5.646;2023-04-03T01:30:03;6.3;55.2
78541;SHT31;67835;51.968;5.646;2023-04-03T01:32:34;6.2;55.2
78541;SHT31;67835;51.968;5.646;2023-04-03T01:35:09;6.2;55.3
78541;SHT31;67835;51.968;5.646;2023-04-03T01:37:39;6.2;55.6
78541;SHT31;67835;51.968;5.646;2023-04-03T01:40:09;6.2;55.7
78541;SHT31;67835;51.968;5.646;2023-04-03T01:42:39;6.1;55.8
78541;SHT31;67835;51.968;5.646;2023-04-03T01:45:10;6.1;55.9
78541;SHT31;67835;51.968;5.646;2023-04-03T01:47:40;6.1;55.9
78541;SHT31;67835;51.968;5.646;2023-04-03T01:50:10;6.1;56.1
78541;SHT31;67835;51.968;5.646;2023-04-03T01:52:39;6.0;56.3
78541;SHT31;67835;51.968;5.646;2023-04-03T01:55:11;6.0;56.1
78541;SHT31;67835;51.968;5.646;2023-04-03T01:57:42;6.0;56.4
78541;SHT31;67835;51.968;5.646;2023-04-03T02:00:13;6.0;56.5
78541;SHT31;67835;51.968;5.646;2023-04-03T02:02:42;6.0;56.6
78541;SHT31;67835;51.968;5.646;2023-04-03T02:05:14;5.9;56.7
78541;SHT31;67835;51.968;5.646;2023-04-03T02:07:44;5.9;56.9
78541;SHT31;67835;51.968;5.646;2023-04-03T02:10:13;5.9;57.0
78541;SHT31;67835;51.968;5.646;2023-04-03T02:12:43;5.9;57.0
78541;SHT31;67835;51.968;5.646;2023-04-03T02:15:12;5.8;57.4
78541;SHT31;67835;51.968;5.646;2023-04-03T02:17:42;5.8;57.5
78541;SHT31;67835;51.968;5.646;2023-04-03T02:20:13;5.8;57.6
78541;SHT31;67835;51.968;5.646;2023-04-03T02:22:44;5.8;57.7
78541;SHT31;67835;51.968;5.646;2023-04-03T02:25:14;5.8;57.9
78541;SHT31;67835;51.968;5.646;2023-04-03T02:27:45;5.7;58.0
78541;SHT31;67835;51.968;5.646;2023-04-03T02:30:14;5.7;58.1
78541;SHT31;67835;51.968;5.646;2023-04-03T02:32:44;5.7;58.2
78541;SHT31;67835;51.968;5.646;2023-04-03T02:35:14;5.7;58.3
78541;SHT31;67835;51.968;5.646;2023-04-03T02:37:43;5.7;58.4
78541;SHT31;67835;51.968;5.646;2023-04-03T02:40:15;5.6;58.4
78541;SHT31;67835;51.968;5.646;2023-04-03T02:42:44;5.6;58.6
78541;SHT31;67835;51.968;5.646;2023-04-03T02:45:14;5.6;58.7
78541;SHT31;67835;51.968;5.646;2023-04-03T02:47:43;5.6;58.8
78541;SHT31;67835;51.968;5.646;2023-04-03T02:50:13;5.6;59.0
78541;SHT31;67835;51.968;5.646;2023-04-03T02:52:44;5.6;59.1
78541;SHT31;67835;51.968;5.646;2023-04-03T02:55:15;5.5;59.2
78541;SHT31;67835;51.968;5.646;2023-04-03T02:57:45;5.5;59.2
78541;SHT31;67835;51.968;5.646;2023-04-03T03:00:15;5.5;59.2
78541;SHT31;67835;51.968;5.646;2023-04-03T03:02:45;5.5;59.2
78541;SHT31;67835;51.968;5.646;2023-04-03T03:05:15;5.5;59.3
78541;SHT31;67835;51.968;5.646;2023-04-03T03:07:44;5.5;59.3
78541;SHT31;67835;51.968;5.646;2023-04-03T03:10:14;5.5;59.3
78541;SHT31;67835;51.968;5.646;2023-04-03T03:12:44;5.5;59.5
78541;SHT31;67835;51.968;5.646;2023-04-03T03:15:14;5.4;59.5
78541;SHT31;67835;51.968;5.646;2023-04-03T03:17:46;5.4;59.6
78541;SHT31;67835;51.968;5.646;2023-04-03T03:20:18;5.4;59.6
78541;SHT31;67835;51.968;5.646;2023-04-03T03:22:48;5.4;59.7
78541;SHT31;67835;51.968;5.646;2023-04-03T03:25:18;5.4;59.8
78541;SHT31;67835;51.968;5.646;2023-04-03T03:27:47;5.3;60.0
78541;SHT31;67835;51.968;5.646;2023-04-03T03:30:17;5.3;60.1
78541;SHT31;67835;51.968;5.646;2023-04-03T03:32:47;5.3;60.3
78541;SHT31;67835;51.968;5.646;2023-04-03T03:35:17;5.3;60.4
78541;SHT31;67835;51.968;5.646;2023-04-03T03:37:47;5.3;60.5
78541;SHT31;67835;51.968;5.646;2023-04-03T03:40:17;5.3;60.6
78541;SHT31;67835;51.968;5.646;2023-04-03T03:42:47;5.2;60.6
78541;SHT31;67835;51.968;5.646;2023-04-03T03:45:17;5.2;60.7
78541;SHT31;67835;51.968;5.646;2023-04-03T03:47:46;5.2;60.9
78541;SHT31;67835;51.968;5.646;2023-04-03T03:50:16;5.2;61.0
78541;SHT31;67835;51.968;5.646;2023-04-03T03:52:45;5.2;61.1
78541;SHT31;67835;51.968;5.646;2023-04-03T03:55:15;5.2;61.2
78541;SHT31;67835;51.968;5.646;2023-04-03T03:57:45;5.1;61.3
78541;SHT31;67835;51.968;5.646;2023-04-03T04:00:15;5.1;61.3
78541;SHT31;67835;51.968;5.646;2023-04-03T04:02:45;5.1;61.6
78541;SHT31;67835;51.968;5.646;2023-04-03T04:05:15;5.1;61.6
78541;SHT31;67835;51.968;5.646;2023-04-03T04:07:45;5.1;61.6
78541;SHT31;67835;51.968;5.646;2023-04-03T04:10:15;5.0;61.8
78541;SHT31;67835;51.968;5.646;2023-04-03T04:12:45;5.0;61.9
78541;SHT31;67835;51.968;5.646;2023-04-03T04:15:16;5.0;61.8
78541;SHT31;67835;51.968;5.646;2023-04-03T04:17:48;5.0;61.9
78541;SHT31;67835;51.968;5.646;2023-04-03T04:20:20;5.0;61.9
78541;SHT31;67835;51.968;5.646;2023-04-03T04:22:50;4.9;62.0
78541;SHT31;67835;51.968;5.646;2023-04-03T04:25:19;4.9;62.0
78541;SHT31;67835;51.968;5.646;2023-04-03T04:27:51;4.9;62.1
78541;SHT31;67835;51.968;5.646;2023-04-03T04:30:22;4.9;62.1
78541;SHT31;67835;51.968;5.646;2023-04-03T04:32:52;4.9;62.2
78541;SHT31;67835;51.968;5.646;2023-04-03T04:35:22;4.9;62.2
78541;SHT31;67835;51.968;5.646;2023-04-03T04:37:52;4.8;62.3
78541;SHT31;67835;51.968;5.646;2023-04-03T04:40:21;4.8;62.3
78541;SHT31;67835;51.968;5.646;2023-04-03T04:42:52;4.8;62.4
78541;SHT31;67835;51.968;5.646;2023-04-03T04:45:22;4.8;62.5
78541;SHT31;67835;51.968;5.646;2023-04-03T04:47:54;4.8;62.4
78541;SHT31;67835;51.968;5.646;2023-04-03T04:50:24;4.7;62.7
78541;SHT31;67835;51.968;5.646;2023-04-03T04:52:53;4.7;62.8
78541;SHT31;67835;51.968;5.646;2023-04-03T04:55:23;4.7;62.8
78541;SHT31;67835;51.968;5.646;2023-04-03T04:57:52;4.7;62.9
78541;SHT31;67835;51.968;5.646;2023-04-03T05:00:22;4.6;63.2
78541;SHT31;67835;51.968;5.646;2023-04-03T05:02:52;4.6;63.2
78541;SHT31;67835;51.968;5.646;2023-04-03T05:05:21;4.6;63.3
78541;SHT31;67835;51.968;5.646;2023-04-03T05:07:52;4.6;63.4
78541;SHT31;67835;51.968;5.646;2023-04-03T05:10:22;4.6;63.3
78541;SHT31;67835;51.968;5.646;2023-04-03T05:12:52;4.6;63.3
78541;SHT31;67835;51.968;5.646;2023-04-03T05:15:22;4.5;63.4
78541;SHT31;67835;51.968;5.646;2023-04-03T05:17:52;4.5;63.4
78541;SHT31;67835;51.968;5.646;2023-04-03T05:20:23;4.5;63.4
78541;SHT31;67835;51.968;5.646;2023-04-03T05:22:52;4.5;63.5
78541;SHT31;67835;51.968;5.646;2023-04-03T05:25:23;4.5;63.4
78541;SHT31;67835;51.968;5.646;2023-04-03T05:27:52;4.4;63.5
78541;SHT31;67835;51.968;5.646;2023-04-03T05:30:22;4.4;63.6
78541;SHT31;67835;51.968;5.646;2023-04-03T05:32:52;4.4;63.6
78541;SHT31;67835;51.968;5.646;2023-04-03T05:35:21;4.4;63.6
78541;SHT31;67835;51.968;5.646;2023-04-03T05:37:51;4.4;63.6
78541;SHT31;67835;51.968;5.646;2023-04-03T05:40:20;4.4;63.6
78541;SHT31;67835;51.968;5.646;2023-04-03T05:42:50;4.4;63.8
78541;SHT31;67835;51.968;5.646;2023-04-03T05:45:20;4.4;63.9
78541;SHT31;67835;51.968;5.646;2023-04-03T05:47:50;4.4;63.9
78541;SHT31;67835;51.968;5.646;2023-04-03T05:50:19;4.5;64.0
78541;SHT31;67835;51.968;5.646;2023-04-03T05:52:52;4.6;63.6
78541;SHT31;67835;51.968;5.646;2023-04-03T05:55:25;4.7;63.2
78541;SHT31;67835;51.968;5.646;2023-04-03T05:57:56;4.9;62.4
78541;SHT31;67835;51.968;5.646;2023-04-03T06:00:26;5.1;61.9
78541;SHT31;67835;51.968;5.646;2023-04-03T06:02:56;5.3;61.2
78541;SHT31;67835;51.968;5.646;2023-04-03T06:05:25;5.5;61.1
78541;SHT31;67835;51.968;5.646;2023-04-03T06:07:55;5.7;59.5
78541;SHT31;67835;51.968;5.646;2023-04-03T06:10:25;6.0;58.7
78541;SHT31;67835;51.968;5.646;2023-04-03T06:12:54;6.2;57.8
78541;SHT31;67835;51.968;5.646;2023-04-03T06:15:24;6.4;56.8
78541;SHT31;67835;51.968;5.646;2023-04-03T06:17:53;6.7;56.0
78541;SHT31;67835;51.968;5.646;2023-04-03T06:20:23;6.9;55.4
78541;SHT31;67835;51.968;5.646;2023-04-03T06:22:53;7.0;54.3
78541;SHT31;67835;51.968;5.646;2023-04-03T06:25:23;7.2;54.0
78541;SHT31;67835;51.968;5.646;2023-04-03T06:27:52;7.4;53.6
78541;SHT31;67835;51.968;5.646;2023-04-03T06:30:22;7.6;52.8
78541;SHT31;67835;51.968;5.646;2023-04-03T06:32:52;7.8;52.2
78541;SHT31;67835;51.968;5.646;2023-04-03T06:35:22;7.9;51.9
78541;SHT31;67835;51.968;5.646;2023-04-03T06:37:53;8.1;50.5
78541;SHT31;67835;51.968;5.646;2023-04-03T06:40:25;8.3;50.1
78541;SHT31;67835;51.968;5.646;2023-04-03T06:42:55;8.5;49.7
78541;SHT31;67835;51.968;5.646;2023-04-03T06:45:24;8.7;48.9
78541;SHT31;67835;51.968;5.646;2023-04-03T06:47:53;8.9;48.6
78541;SHT31;67835;51.968;5.646;2023-04-03T06:50:23;9.1;47.6
78541;SHT31;67835;51.968;5.646;2023-04-03T06:52:53;9.3;47.0
78541;SHT31;67835;51.968;5.646;2023-04-03T06:55:23;9.5;46.7
78541;SHT31;67835;51.968;5.646;2023-04-03T06:57:54;9.7;46.6
78541;SHT31;67835;51.968;5.646;2023-04-03T07:00:24;9.9;46.1
78541;SHT31;67835;51.968;5.646;2023-04-03T07:02:54;10.2;45.3
78541;SHT31;67835;51.968;5.646;2023-04-03T07:05:24;10.4;45.2
78541;SHT31;67835;51.968;5.646;2023-04-03T07:07:54;10.6;44.7
78541;SHT31;67835;51.968;5.646;2023-04-03T07:10:24;10.9;44.2
78541;SHT31;67835;51.968;5.646;2023-04-03T07:12:54;11.2;43.6
78541;SHT31;67835;51.968;5.646;2023-04-03T07:15:24;11.5;42.8
78541;SHT31;67835;51.968;5.646;2023-04-03T07:17:53;11.9;41.4
78541;SHT31;67835;51.968;5.646;2023-04-03T07:20:22;12.2;41.2
78541;SHT31;67835;51.968;5.646;2023-04-03T07:22:52;12.5;40.8
78541;SHT31;67835;51.968;5.646;2023-04-03T07:25:22;12.8;40.0
78541;SHT31;67835;51.968;5.646;2023-04-03T07:27:52;13.2;38.8
78541;SHT31;67835;51.968;5.646;2023-04-03T07:30:23;13.5;37.9
78541;SHT31;67835;51.968;5.646;2023-04-03T07:32:53;13.9;37.5
78541;SHT31;67835;51.968;5.646;2023-04-03T07:35:23;14.2;36.7
78541;SHT31;67835;51.968;5.646;2023-04-03T07:37:52;14.5;36.1
78541;SHT31;67835;51.968;5.646;2023-04-03T07:40:22;14.9;35.1
78541;SHT31;67835;51.968;5.646;2023-04-03T07:42:51;15.2;34.3
78541;SHT31;67835;51.968;5.646;2023-04-03T07:45:22;15.5;33.0
78541;SHT31;67835;51.968;5.646;2023-04-03T07:47:52;15.8;33.2
78541;SHT31;67835;51.968;5.646;2023-04-03T07:50:22;16.0;32.2
78541;SHT31;67835;51.968;5.646;2023-04-03T07:52:52;16.4;31.7
78541;SHT31;67835;51.968;5.646;2023-04-03T07:55:25;16.7;31.2
78541;SHT31;67835;51.968;5.646;2023-04-03T07:57:55;17.0;30.1
78541;SHT31;67835;51.968;5.646;2023-04-03T08:00:25;17.3;30.8
78541;SHT31;67835;51.968;5.646;2023-04-03T08:02:54;17.5;29.8
78541;SHT31;67835;51.968;5.646;2023-04-03T08:05:24;17.9;30.0
78541;SHT31;67835;51.968;5.646;2023-04-03T08:07:55;18.2;28.7
78541;SHT31;67835;51.968;5.646;2023-04-03T08:10:25;18.5;26.8
78541;SHT31;67835;51.968;5.646;2023-04-03T08:12:55;18.8;26.0
78541;SHT31;67835;51.968;5.646;2023-04-03T08:15:27;19.0;24.8
78541;SHT31;67835;51.968;5.646;2023-04-03T08:17:58;19.1;24.9
78541;SHT31;67835;51.968;5.646;2023-04-03T08:20:28;19.3;26.0
78541;SHT31;67835;51.968;5.646;2023-04-03T08:22:58;19.5;24.4
78541;SHT31;67835;51.968;5.646;2023-04-03T08:25:28;19.7;24.7
78541;SHT31;67835;51.968;5.646;2023-04-03T08:27:58;20.0;23.6
78541;SHT31;67835;51.968;5.646;2023-04-03T08:30:29;20.3;23.5
78541;SHT31;67835;51.968;5.646;2023-04-03T08:33:01;20.5;23.4
78541;SHT31;67835;51.968;5.646;2023-04-03T08:35:31;20.8;22.2
78541;SHT31;67835;51.968;5.646;2023-04-03T08:38:02;21.1;21.0
78541;SHT31;67835;51.968;5.646;2023-04-03T08:40:33;21.3;19.2
78541;SHT31;67835;51.968;5.646;2023-04-03T08:43:19;21.5;18.7
78541;SHT31;67835;51.968;5.646;2023-04-03T08:45:55;21.7;18.7
78541;SHT31;67835;51.968;5.646;2023-04-03T08:48:32;21.8;19.0
78541;SHT31;67835;51.968;5.646;2023-04-03T08:51:08;22.0;18.2
78541;SHT31;67835;51.968;5.646;2023-04-03T08:53:48;22.2;16.7
78541;SHT31;67835;51.968;5.646;2023-04-03T08:56:20;22.3;15.0
78541;SHT31;67835;51.968;5.646;2023-04-03T08:58:55;22.4;16.1
78541;SHT31;67835;51.968;5.646;2023-04-03T09:01:30;22.4;16.5
78541;SHT31;67835;51.968;5.646;2023-04-03T09:04:11;22.5;16.9
78541;SHT31;67835;51.968;5.646;2023-04-03T09:06:45;22.7;16.3
78541;SHT31;67835;51.968;5.646;2023-04-03T09:09:31;22.9;15.0
78541;SHT31;67835;51.968;5.646;2023-04-03T09:12:15;23.0;14.8
78541;SHT31;67835;51.968;5.646;2023-04-03T09:14:58;23.1;15.3
78541;SHT31;67835;51.968;5.646;2023-04-03T09:17:45;23.2;13.5
78541;SHT31;67835;51.968;5.646;2023-04-03T09:20:26;23.2;13.1
78541;SHT31;67835;51.968;5.646;2023-04-03T09:22:59;23.3;13.1
78541;SHT31;67835;51.968;5.646;2023-04-03T09:25:32;23.3;14.0
78541;SHT31;67835;51.968;5.646;2023-04-03T09:28:05;23.3;14.9
78541;SHT31;67835;51.968;5.646;2023-04-03T09:30:37;23.3;13.4
78541;SHT31;67835;51.968;5.646;2023-04-03T09:33:11;23.4;12.5
78541;SHT31;67835;51.968;5.646;2023-04-03T09:35:43;23.5;12.5
78541;SHT31;67835;51.968;5.646;2023-04-03T09:38:18;23.5;13.2
78541;SHT31;67835;51.968;5.646;2023-04-03T09:41:02;23.6;12.9
78541;SHT31;67835;51.968;5.646;2023-04-03T09:43:31;23.6;12.7
78541;SHT31;67835;51.968;5.646;2023-04-03T09:46:33;23.6;12.5
78541;SHT31;67835;51.968;5.646;2023-04-03T09:49:08;23.5;13.4
78541;SHT31;67835;51.968;5.646;2023-04-03T09:51:41;23.5;12.6
78541;SHT31;67835;51.968;5.646;2023-04-03T09:55:02;23.6;12.7
78541;SHT31;67835;51.968;5.646;2023-04-03T09:57:37;23.6;14.1
78541;SHT31;67835;51.968;5.646;2023-04-03T10:00:22;23.6;12.8
78541;SHT31;67835;51.968;5.646;2023-04-03T10:02:55;23.8;12.5
78541;SHT31;67835;51.968;5.646;2023-04-03T10:05:31;23.8;12.3
78541;SHT31;67835;51.968;5.646;2023-04-03T10:08:25;23.9;12.6
78541;SHT31;67835;51.968;5.646;2023-04-03T10:11:10;24.0;13.2
78541;SHT31;67835;51.968;5.646;2023-04-03T10:13:55;24.0;13.4
78541;SHT31;67835;51.968;5.646;2023-04-03T10:16:34;24.1;11.8
78541;SHT31;67835;51.968;5.646;2023-04-03T10:19:17;24.1;12.0
78541;SHT31;67835;51.968;5.646;2023-04-03T10:21:55;24.1;11.9
78541;SHT31;67835;51.968;5.646;2023-04-03T10:24:39;24.1;12.6
78541;SHT31;67835;51.968;5.646;2023-04-03T10:27:20;24.0;12.7
78541;SHT31;67835;51.968;5.646;2023-04-03T10:30:04;24.0;13.1
78541;SHT31;67835;51.968;5.646;2023-04-03T10:32:52;23.9;13.9
78541;SHT31;67835;51.968;5.646;2023-04-03T10:35:37;24.0;13.3
78541;SHT31;67835;51.968;5.646;2023-04-03T10:38:18;24.1;13.3
78541;SHT31;67835;51.968;5.646;2023-04-03T10:41:00;24.1;13.0
78541;SHT31;67835;51.968;5.646;2023-04-03T10:43:37;24.1;13.4
78541;SHT31;67835;51.968;5.646;2023-04-03T10:46:15;24.2;13.7
78541;SHT31;67835;51.968;5.646;2023-04-03T10:49:21;24.2;13.6
78541;SHT31;67835;51.968;5.646;2023-04-03T10:52:00;24.2;14.0
78541;SHT31;67835;51.968;5.646;2023-04-03T10:54:38;24.3;13.5
78541;SHT31;67835;51.968;5.646;2023-04-03T10:57:10;24.3;13.8
78541;SHT31;67835;51.968;5.646;2023-04-03T10:59:43;24.3;15.0
78541;SHT31;67835;51.968;5.646;2023-04-03T11:02:24;24.4;13.5
78541;SHT31;67835;51.968;5.646;2023-04-03T11:05:00;24.4;13.5
78541;SHT31;67835;51.968;5.646;2023-04-03T11:07:40;24.4;14.5
78541;SHT31;67835;51.968;5.646;2023-04-03T11:10:20;24.4;14.9
78541;SHT31;67835;51.968;5.646;2023-04-03T11:13:02;24.5;14.9
78541;SHT31;67835;51.968;5.646;2023-04-03T11:15:32;24.6;13.6
78541;SHT31;67835;51.968;5.646;2023-04-03T11:18:06;24.7;14.3
78541;SHT31;67835;51.968;5.646;2023-04-03T11:20:43;24.7;14.7
78541;SHT31;67835;51.968;5.646;2023-04-03T11:23:23;24.8;14.5
78541;SHT31;67835;51.968;5.646;2023-04-03T11:25:59;24.9;13.5
78541;SHT31;67835;51.968;5.646;2023-04-03T11:28:32;25.0;13.6
78541;SHT31;67835;51.968;5.646;2023-04-03T11:31:13;24.9;13.5
78541;SHT31;67835;51.968;5.646;2023-04-03T11:33:55;24.7;12.8
78541;SHT31;67835;51.968;5.646;2023-04-03T11:36:31;24.5;13.6
78541;SHT31;67835;51.968;5.646;2023-04-03T11:39:10;24.3;13.7
78541;SHT31;67835;51.968;5.646;2023-04-03T11:41:44;24.2;14.8
78541;SHT31;67835;51.968;5.646;2023-04-03T11:44:30;24.2;13.6
78541;SHT31;67835;51.968;5.646;2023-04-03T11:47:02;24.1;13.8
78541;SHT31;67835;51.968;5.646;2023-04-03T11:49:56;24.1;13.6
78541;SHT31;67835;51.968;5.646;2023-04-03T11:53:13;24.0;14.4
78541;SHT31;67835;51.968;5.646;2023-04-03T11:55:57;24.0;13.9
78541;SHT31;67835;51.968;5.646;2023-04-03T11:58:29;23.9;15.9
78541;SHT31;67835;51.968;5.646;2023-04-03T12:01:10;23.9;14.8
78541;SHT31;67835;51.968;5.646;2023-04-03T12:04:26;23.9;14.8
78541;SHT31;67835;51.968;5.646;2023-04-03T12:07:17;24.0;14.2
78541;SHT31;67835;51.968;5.646;2023-04-03T12:10:17;24.0;13.6
78541;SHT31;67835;51.968;5.646;2023-04-03T12:13:12;23.9;14.5
78541;SHT31;67835;51.968;5.646;2023-04-03T12:15:50;23.8;14.1
78541;SHT31;67835;51.968;5.646;2023-04-03T12:20:51;23.8;14.3
78541;SHT31;67835;51.968;5.646;2023-04-03T12:23:30;23.6;13.9
78541;SHT31;67835;51.968;5.646;2023-04-03T12:26:22;23.4;15.2
78541;SHT31;67835;51.968;5.646;2023-04-03T12:28:55;23.3;14.4
78541;SHT31;67835;51.968;5.646;2023-04-03T12:31:39;23.2;15.1
78541;SHT31;67835;51.968;5.646;2023-04-03T12:34:29;23.1;15.3
78541;SHT31;67835;51.968;5.646;2023-04-03T12:37:12;23.0;15.0
78541;SHT31;67835;51.968;5.646;2023-04-03T12:39:49;23.0;14.9
78541;SHT31;67835;51.968;5.646;2023-04-03T12:42:37;22.7;16.3
78541;SHT31;67835;51.968;5.646;2023-04-03T12:45:16;22.5;17.1
78541;SHT31;67835;51.968;5.646;2023-04-03T12:47:49;22.4;16.0
78541;SHT31;67835;51.968;5.646;2023-04-03T12:50:22;22.4;15.6
78541;SHT31;67835;51.968;5.646;2023-04-03T12:52:57;22.3;15.8
78541;SHT31;67835;51.968;5.646;2023-04-03T12:55:28;22.2;15.8
78541;SHT31;67835;51.968;5.646;2023-04-03T12:58:21;22.1;16.8
78541;SHT31;67835;51.968;5.646;2023-04-03T13:01:03;22.0;17.9
78541;SHT31;67835;51.968;5.646;2023-04-03T13:03:33;21.9;17.0
78541;SHT31;67835;51.968;5.646;2023-04-03T13:06:04;21.9;16.6
78541;SHT31;67835;51.968;5.646;2023-04-03T13:08:34;21.9;16.3
78541;SHT31;67835;51.968;5.646;2023-04-03T13:11:09;21.9;16.7
78541;SHT31;67835;51.968;5.646;2023-04-03T13:13:40;21.8;16.4
78541;SHT31;67835;51.968;5.646;2023-04-03T13:16:11;21.6;16.4
78541;SHT31;67835;51.968;5.646;2023-04-03T13:18:41;21.3;17.7
78541;SHT31;67835;51.968;5.646;2023-04-03T13:21:17;21.2;17.2
78541;SHT31;67835;51.968;5.646;2023-04-03T13:23:52;21.1;17.2
78541;SHT31;67835;51.968;5.646;2023-04-03T13:26:26;21.0;17.2
78541;SHT31;67835;51.968;5.646;2023-04-03T13:29:00;20.9;17.1
78541;SHT31;67835;51.968;5.646;2023-04-03T13:31:32;20.9;17.4
78541;SHT31;67835;51.968;5.646;2023-04-03T13:34:09;20.8;17.6
78541;SHT31;67835;51.968;5.646;2023-04-03T13:36:45;20.8;17.7
78541;SHT31;67835;51.968;5.646;2023-04-03T13:39:26;20.8;18.1
78541;SHT31;67835;51.968;5.646;2023-04-03T13:41:59;20.8;18.2
78541;SHT31;67835;51.968;5.646;2023-04-03T13:44:33;20.8;17.6
78541;SHT31;67835;51.968;5.646;2023-04-03T13:47:20;20.8;17.5
78541;SHT31;67835;51.968;5.646;2023-04-03T13:50:12;20.7;17.4
78541;SHT31;67835;51.968;5.646;2023-04-03T13:52:41;20.6;16.7
78541;SHT31;67835;51.968;5.646;2023-04-03T13:55:20;20.5;17.9
78541;SHT31;67835;51.968;5.646;2023-04-03T13:57:54;20.3;18.2
78541;SHT31;67835;51.968;5.646;2023-04-03T14:00:32;20.2;18.8
78541;SHT31;67835;51.968;5.646;2023-04-03T14:03:16;20.1;18.1
78541;SHT31;67835;51.968;5.646;2023-04-03T14:05:48;19.9;18.7
78541;SHT31;67835;51.968;5.646;2023-04-03T14:08:18;19.8;18.3
78541;SHT31;67835;51.968;5.646;2023-04-03T14:10:48;19.7;18.9
78541;SHT31;67835;51.968;5.646;2023-04-03T14:13:20;19.6;19.9
78541;SHT31;67835;51.968;5.646;2023-04-03T14:15:50;19.6;18.0
78541;SHT31;67835;51.968;5.646;2023-04-03T14:18:21;19.5;18.6
78541;SHT31;67835;51.968;5.646;2023-04-03T14:20:51;19.5;18.5
78541;SHT31;67835;51.968;5.646;2023-04-03T14:23:21;19.4;18.6
78541;SHT31;67835;51.968;5.646;2023-04-03T14:25:50;19.3;18.4
78541;SHT31;67835;51.968;5.646;2023-04-03T14:28:22;19.1;18.8
78541;SHT31;67835;51.968;5.646;2023-04-03T14:30:52;19.0;19.5
78541;SHT31;67835;51.968;5.646;2023-04-03T14:33:23;18.8;20.7
78541;SHT31;67835;51.968;5.646;2023-04-03T14:35:54;18.7;20.9
78541;SHT31;67835;51.968;5.646;2023-04-03T14:38:27;18.6;21.3
78541;SHT31;67835;51.968;5.646;2023-04-03T14:40:58;18.5;20.5
78541;SHT31;67835;51.968;5.646;2023-04-03T14:43:27;18.4;21.0
78541;SHT31;67835;51.968;5.646;2023-04-03T14:45:57;18.3;21.6
78541;SHT31;67835;51.968;5.646;2023-04-03T14:48:29;18.3;21.4
78541;SHT31;67835;51.968;5.646;2023-04-03T14:51:00;18.2;20.2
78541;SHT31;67835;51.968;5.646;2023-04-03T14:53:29;18.1;20.4
78541;SHT31;67835;51.968;5.646;2023-04-03T14:56:02;17.9;21.2
78541;SHT31;67835;51.968;5.646;2023-04-03T14:58:36;17.9;21.5
78541;SHT31;67835;51.968;5.646;2023-04-03T15:01:18;17.9;21.6
78541;SHT31;67835;51.968;5.646;2023-04-03T15:03:56;17.8;22.3
78541;SHT31;67835;51.968;5.646;2023-04-03T15:06:38;17.9;22.4
78541;SHT31;67835;51.968;5.646;2023-04-03T15:09:15;17.9;22.1
78541;SHT31;67835;51.968;5.646;2023-04-03T15:11:48;18.0;21.7
78541;SHT31;67835;51.968;5.646;2023-04-03T15:14:18;17.9;21.9
78541;SHT31;67835;51.968;5.646;2023-04-03T15:16:48;17.9;21.8
78541;SHT31;67835;51.968;5.646;2023-04-03T15:19:18;17.8;22.0
78541;SHT31;67835;51.968;5.646;2023-04-03T15:21:48;17.7;21.7
78541;SHT31;67835;51.968;5.646;2023-04-03T15:24:19;17.7;22.4
78541;SHT31;67835;51.968;5.646;2023-04-03T15:26:48;17.6;22.8
78541;SHT31;67835;51.968;5.646;2023-04-03T15:29:18;17.5;22.5
78541;SHT31;67835;51.968;5.646;2023-04-03T15:31:47;17.4;22.8
78541;SHT31;67835;51.968;5.646;2023-04-03T15:34:20;17.3;23.1
78541;SHT31;67835;51.968;5.646;2023-04-03T15:36:50;17.2;23.4
78541;SHT31;67835;51.968;5.646;2023-04-03T15:39:21;17.1;23.9
78541;SHT31;67835;51.968;5.646;2023-04-03T15:41:54;17.1;23.9
78541;SHT31;67835;51.968;5.646;2023-04-03T15:44:27;17.1;24.5
78541;SHT31;67835;51.968;5.646;2023-04-03T15:46:58;17.1;24.6
78541;SHT31;67835;51.968;5.646;2023-04-03T15:49:29;17.1;24.5
78541;SHT31;67835;51.968;5.646;2023-04-03T15:52:01;17.2;25.0
78541;SHT31;67835;51.968;5.646;2023-04-03T15:54:31;17.3;24.9
78541;SHT31;67835;51.968;5.646;2023-04-03T15:57:01;17.3;23.9
78541;SHT31;67835;51.968;5.646;2023-04-03T15:59:30;17.5;23.9
78541;SHT31;67835;51.968;5.646;2023-04-03T16:02:06;17.6;22.9
78541;SHT31;67835;51.968;5.646;2023-04-03T16:04:36;17.7;23.1
78541;SHT31;67835;51.968;5.646;2023-04-03T16:07:06;17.7;23.6
78541;SHT31;67835;51.968;5.646;2023-04-03T16:09:36;17.7;22.9
78541;SHT31;67835;51.968;5.646;2023-04-03T16:12:06;17.8;22.9
78541;SHT31;67835;51.968;5.646;2023-04-03T16:14:35;17.8;22.8
78541;SHT31;67835;51.968;5.646;2023-04-03T16:17:05;17.9;23.0
78541;SHT31;67835;51.968;5.646;2023-04-03T16:19:36;17.9;23.0
78541;SHT31;67835;51.968;5.646;2023-04-03T16:22:06;17.9;23.1
78541;SHT31;67835;51.968;5.646;2023-04-03T16:24:37;17.8;23.1
78541;SHT31;67835;51.968;5.646;2023-04-03T16:27:07;17.8;22.9
78541;SHT31;67835;51.968;5.646;2023-04-03T16:29:39;17.8;23.2
78541;SHT31;67835;51.968;5.646;2023-04-03T16:32:08;17.8;23.8
78541;SHT31;67835;51.968;5.646;2023-04-03T16:34:38;17.8;23.2
78541;SHT31;67835;51.968;5.646;2023-04-03T16:37:11;17.8;23.7
78541;SHT31;67835;51.968;5.646;2023-04-03T16:39:42;17.8;23.6
78541;SHT31;67835;51.968;5.646;2023-04-03T16:42:11;17.9;23.5
78541;SHT31;67835;51.968;5.646;2023-04-03T16:44:43;17.9;23.1
78541;SHT31;67835;51.968;5.646;2023-04-03T16:47:13;17.9;23.3
78541;SHT31;67835;51.968;5.646;2023-04-03T16:49:46;17.8;23.2
78541;SHT31;67835;51.968;5.646;2023-04-03T16:52:16;17.7;23.2
78541;SHT31;67835;51.968;5.646;2023-04-03T16:54:48;17.6;23.9